sensor_id;sensor_type;location;lat;lon;timestamp;P1;durP1;ratioP1;P2;durP2;ratioP2
41219;SDS011;26951;47.338;9.196;2023-01-26T00:00:09;23.02;;;11.65;;
41219;SDS011;26951;47.338;9.196;2023-01-26T00:02:54;23.45;;;11.75;;
41219;SDS011;26951;47.338;9.196;2023-01-26T00:05:38;24.58;;;12.35;;
41219;SDS011;26951;47.338;9.196;2023-01-26T00:08:22;26.53;;;13.13;;
41219;SDS011;26951;47.338;9.196;2023-01-26T00:11:07;22.30;;;12.07;;
41219;SDS011;26951;47.338;9.196;2023-01-26T00:13:55;24.63;;;11.80;;
41219;SDS011;26951;47.338;9.196;2023-01-26T00:16:40;25.90;;;13.50;;
41219;SDS011;26951;47.338;9.196;2023-01-26T00:19:24;24.70;;;11.70;;
41219;SDS011;26951;47.338;9.196;2023-01-26T00:22:08;26.65;;;12.68;;
41219;SDS011;26951;47.338;9.196;2023-01-26T00:24:52;28.05;;;11.98;;
41219;SDS011;26951;47.338;9.196;2023-01-26T00:27:37;23.67;;;12.15;;
41219;SDS011;26951;47.338;9.196;2023-01-26T00:30:21;23.52;;;12.30;;
41219;SDS011;26951;47.338;9.196;2023-01-26T00:33:05;22.00;;;12.73;;
41219;SDS011;26951;47.338;9.196;2023-01-26T00:35:55;22.13;;;12.73;;
41219;SDS011;26951;47.338;9.196;2023-01-26T00:38:39;21.38;;;11.60;;
41219;SDS011;26951;47.338;9.196;2023-01-26T00:41:24;23.58;;;11.18;;
41219;SDS011;26951;47.338;9.196;2023-01-26T00:44:27;20.25;;;11.00;;
41219;SDS011;26951;47.338;9.196;2023-01-26T00:47:12;24.88;;;11.43;;
41219;SDS011;26951;47.338;9.196;2023-01-26T00:49:56;21.83;;;12.20;;
41219;SDS011;26951;47.338;9.196;2023-01-26T00:52:40;22.70;;;11.70;;
41219;SDS011;26951;47.338;9.196;2023-01-26T00:55:24;24.30;;;12.35;;
41219;SDS011;26951;47.338;9.196;2023-01-26T00:58:14;23.73;;;11.75;;
41219;SDS011;26951;47.338;9.196;2023-01-26T01:00:58;19.83;;;12.23;;
41219;SDS011;26951;47.338;9.196;2023-01-26T01:03:42;20.38;;;11.50;;
41219;SDS011;26951;47.338;9.196;2023-01-26T01:06:27;21.35;;;11.60;;
41219;SDS011;26951;47.338;9.196;2023-01-26T01:09:11;22.30;;;10.98;;
41219;SDS011;26951;47.338;9.196;2023-01-26T01:11:56;22.43;;;11.47;;
41219;SDS011;26951;47.338;9.196;2023-01-26T01:14:40;19.52;;;11.02;;
41219;SDS011;26951;47.338;9.196;2023-01-26T01:17:24;26.90;;;12.23;;
41219;SDS011;26951;47.338;9.196;2023-01-26T01:20:09;21.63;;;11.35;;
41219;SDS011;26951;47.338;9.196;2023-01-26T01:22:53;25.05;;;11.50;;
41219;SDS011;26951;47.338;9.196;2023-01-26T01:25:37;21.63;;;12.32;;
41219;SDS011;26951;47.338;9.196;2023-01-26T01:28:22;22.55;;;10.73;;
41219;SDS011;26951;47.338;9.196;2023-01-26T01:31:07;24.65;;;11.77;;
41219;SDS011;26951;47.338;9.196;2023-01-26T01:33:53;19.83;;;10.65;;
41219;SDS011;26951;47.338;9.196;2023-01-26T01:36:37;19.90;;;11.30;;
41219;SDS011;26951;47.338;9.196;2023-01-26T01:39:21;19.75;;;10.85;;
41219;SDS011;26951;47.338;9.196;2023-01-26T01:42:06;21.58;;;10.70;;
41219;SDS011;26951;47.338;9.196;2023-01-26T01:48:12;21.70;;;10.63;;
41219;SDS011;26951;47.338;9.196;2023-01-26T01:51:19;21.42;;;11.00;;
41219;SDS011;26951;47.338;9.196;2023-01-26T01:54:17;24.50;;;11.38;;
41219;SDS011;26951;47.338;9.196;2023-01-26T01:57:06;21.73;;;11.43;;
41219;SDS011;26951;47.338;9.196;2023-01-26T01:59:59;19.15;;;10.13;;
41219;SDS011;26951;47.338;9.196;2023-01-26T02:02:53;20.10;;;10.30;;
41219;SDS011;26951;47.338;9.196;2023-01-26T02:08:58;18.48;;;9.68;;
41219;SDS011;26951;47.338;9.196;2023-01-26T02:11:44;21.38;;;11.15;;
41219;SDS011;26951;47.338;9.196;2023-01-26T02:14:28;19.90;;;10.20;;
41219;SDS011;26951;47.338;9.196;2023-01-26T02:17:15;19.38;;;10.32;;
41219;SDS011;26951;47.338;9.196;2023-01-26T02:20:16;20.13;;;11.90;;
41219;SDS011;26951;47.338;9.196;2023-01-26T02:23:18;19.50;;;11.38;;
41219;SDS011;26951;47.338;9.196;2023-01-26T02:26:20;23.70;;;11.98;;
41219;SDS011;26951;47.338;9.196;2023-01-26T02:29:08;20.77;;;10.35;;
41219;SDS011;26951;47.338;9.196;2023-01-26T02:31:54;19.38;;;10.07;;
41219;SDS011;26951;47.338;9.196;2023-01-26T02:34:38;20.63;;;10.27;;
41219;SDS011;26951;47.338;9.196;2023-01-26T02:37:23;19.02;;;10.68;;
41219;SDS011;26951;47.338;9.196;2023-01-26T02:40:54;22.92;;;10.50;;
41219;SDS011;26951;47.338;9.196;2023-01-26T02:43:15;20.23;;;10.95;;
41219;SDS011;26951;47.338;9.196;2023-01-26T02:45:59;23.05;;;12.32;;
41219;SDS011;26951;47.338;9.196;2023-01-26T02:48:43;24.48;;;10.48;;
41219;SDS011;26951;47.338;9.196;2023-01-26T02:51:46;18.95;;;11.15;;
41219;SDS011;26951;47.338;9.196;2023-01-26T02:54:31;19.38;;;9.55;;
41219;SDS011;26951;47.338;9.196;2023-01-26T02:57:34;19.67;;;10.02;;
41219;SDS011;26951;47.338;9.196;2023-01-26T03:00:19;22.27;;;11.65;;
41219;SDS011;26951;47.338;9.196;2023-01-26T03:03:11;19.85;;;10.73;;
41219;SDS011;26951;47.338;9.196;2023-01-26T03:05:58;24.80;;;12.10;;
41219;SDS011;26951;47.338;9.196;2023-01-26T03:08:42;20.75;;;10.68;;
41219;SDS011;26951;47.338;9.196;2023-01-26T03:11:26;20.67;;;10.90;;
41219;SDS011;26951;47.338;9.196;2023-01-26T03:14:24;22.48;;;11.25;;
41219;SDS011;26951;47.338;9.196;2023-01-26T03:17:09;24.52;;;11.80;;
41219;SDS011;26951;47.338;9.196;2023-01-26T03:19:53;21.70;;;11.30;;
41219;SDS011;26951;47.338;9.196;2023-01-26T03:22:56;21.80;;;10.65;;
41219;SDS011;26951;47.338;9.196;2023-01-26T03:25:59;19.08;;;9.85;;
41219;SDS011;26951;47.338;9.196;2023-01-26T03:29:03;24.33;;;10.75;;
41219;SDS011;26951;47.338;9.196;2023-01-26T03:31:47;18.55;;;10.05;;
41219;SDS011;26951;47.338;9.196;2023-01-26T03:34:31;22.40;;;11.02;;
41219;SDS011;26951;47.338;9.196;2023-01-26T03:37:16;18.38;;;11.23;;
41219;SDS011;26951;47.338;9.196;2023-01-26T03:40:05;24.63;;;11.25;;
41219;SDS011;26951;47.338;9.196;2023-01-26T03:43:08;23.73;;;11.50;;
41219;SDS011;26951;47.338;9.196;2023-01-26T03:46:11;23.52;;;11.10;;
41219;SDS011;26951;47.338;9.196;2023-01-26T03:49:15;24.67;;;11.27;;
41219;SDS011;26951;47.338;9.196;2023-01-26T03:52:18;21.35;;;10.75;;
41219;SDS011;26951;47.338;9.196;2023-01-26T03:55:21;23.25;;;10.95;;
41219;SDS011;26951;47.338;9.196;2023-01-26T03:58:24;22.65;;;10.13;;
41219;SDS011;26951;47.338;9.196;2023-01-26T04:01:13;22.73;;;11.57;;
41219;SDS011;26951;47.338;9.196;2023-01-26T04:04:02;24.52;;;11.15;;
41219;SDS011;26951;47.338;9.196;2023-01-26T04:07:06;18.52;;;9.98;;
41219;SDS011;26951;47.338;9.196;2023-01-26T04:10:09;19.40;;;10.77;;
41219;SDS011;26951;47.338;9.196;2023-01-26T04:12:53;20.92;;;11.38;;
41219;SDS011;26951;47.338;9.196;2023-01-26T04:15:56;20.08;;;10.82;;
41219;SDS011;26951;47.338;9.196;2023-01-26T04:18:59;23.05;;;10.35;;
41219;SDS011;26951;47.338;9.196;2023-01-26T04:22:02;17.30;;;9.63;;
41219;SDS011;26951;47.338;9.196;2023-01-26T04:24:46;22.10;;;11.70;;
41219;SDS011;26951;47.338;9.196;2023-01-26T04:27:31;21.13;;;11.98;;
41219;SDS011;26951;47.338;9.196;2023-01-26T04:30:17;20.20;;;10.13;;
41219;SDS011;26951;47.338;9.196;2023-01-26T04:33:02;19.40;;;11.25;;
41219;SDS011;26951;47.338;9.196;2023-01-26T04:35:45;20.55;;;11.02;;
41219;SDS011;26951;47.338;9.196;2023-01-26T04:38:30;18.63;;;9.55;;
41219;SDS011;26951;47.338;9.196;2023-01-26T04:41:14;21.70;;;9.90;;
41219;SDS011;26951;47.338;9.196;2023-01-26T04:43:59;22.70;;;11.32;;
41219;SDS011;26951;47.338;9.196;2023-01-26T04:46:43;20.35;;;10.23;;
41219;SDS011;26951;47.338;9.196;2023-01-26T04:49:30;22.45;;;10.65;;
41219;SDS011;26951;47.338;9.196;2023-01-26T04:52:14;19.65;;;10.95;;
41219;SDS011;26951;47.338;9.196;2023-01-26T04:54:58;21.05;;;11.02;;
41219;SDS011;26951;47.338;9.196;2023-01-26T04:57:43;23.75;;;12.27;;
41219;SDS011;26951;47.338;9.196;2023-01-26T05:00:27;20.58;;;10.30;;
41219;SDS011;26951;47.338;9.196;2023-01-26T05:03:11;19.17;;;10.85;;
41219;SDS011;26951;47.338;9.196;2023-01-26T05:05:55;16.77;;;9.27;;
41219;SDS011;26951;47.338;9.196;2023-01-26T05:08:39;22.95;;;11.75;;
41219;SDS011;26951;47.338;9.196;2023-01-26T05:11:24;16.77;;;9.70;;
41219;SDS011;26951;47.338;9.196;2023-01-26T05:14:08;20.02;;;9.25;;
41219;SDS011;26951;47.338;9.196;2023-01-26T05:16:52;19.13;;;10.40;;
41219;SDS011;26951;47.338;9.196;2023-01-26T05:19:37;19.05;;;10.48;;
41219;SDS011;26951;47.338;9.196;2023-01-26T05:22:20;18.38;;;9.88;;
41219;SDS011;26951;47.338;9.196;2023-01-26T05:25:05;18.48;;;10.52;;
41219;SDS011;26951;47.338;9.196;2023-01-26T05:27:49;20.02;;;10.05;;
41219;SDS011;26951;47.338;9.196;2023-01-26T05:30:34;21.42;;;9.60;;
41219;SDS011;26951;47.338;9.196;2023-01-26T05:33:17;19.70;;;9.88;;
41219;SDS011;26951;47.338;9.196;2023-01-26T05:36:05;18.75;;;9.57;;
41219;SDS011;26951;47.338;9.196;2023-01-26T05:38:50;18.65;;;9.77;;
41219;SDS011;26951;47.338;9.196;2023-01-26T05:41:34;18.88;;;9.75;;
41219;SDS011;26951;47.338;9.196;2023-01-26T05:44:18;16.70;;;9.60;;
41219;SDS011;26951;47.338;9.196;2023-01-26T05:47:03;17.27;;;8.52;;
41219;SDS011;26951;47.338;9.196;2023-01-26T05:49:47;19.02;;;9.77;;
41219;SDS011;26951;47.338;9.196;2023-01-26T05:52:31;19.63;;;9.55;;
41219;SDS011;26951;47.338;9.196;2023-01-26T05:55:15;17.90;;;9.63;;
41219;SDS011;26951;47.338;9.196;2023-01-26T05:58:00;19.50;;;9.95;;
41219;SDS011;26951;47.338;9.196;2023-01-26T06:00:44;19.00;;;10.90;;
41219;SDS011;26951;47.338;9.196;2023-01-26T06:03:28;18.77;;;9.95;;
41219;SDS011;26951;47.338;9.196;2023-01-26T06:06:12;21.23;;;10.75;;
41219;SDS011;26951;47.338;9.196;2023-01-26T06:08:57;19.88;;;11.23;;
41219;SDS011;26951;47.338;9.196;2023-01-26T06:11:41;21.38;;;10.10;;
41219;SDS011;26951;47.338;9.196;2023-01-26T06:14:25;22.92;;;10.93;;
41219;SDS011;26951;47.338;9.196;2023-01-26T06:17:10;19.50;;;10.50;;
41219;SDS011;26951;47.338;9.196;2023-01-26T06:19:55;22.27;;;10.75;;
41219;SDS011;26951;47.338;9.196;2023-01-26T06:22:39;16.90;;;9.52;;
41219;SDS011;26951;47.338;9.196;2023-01-26T06:25:23;19.40;;;10.02;;
41219;SDS011;26951;47.338;9.196;2023-01-26T06:28:07;17.98;;;10.60;;
41219;SDS011;26951;47.338;9.196;2023-01-26T06:30:55;22.50;;;12.30;;
41219;SDS011;26951;47.338;9.196;2023-01-26T06:33:45;19.23;;;9.57;;
41219;SDS011;26951;47.338;9.196;2023-01-26T06:36:29;20.42;;;10.63;;
41219;SDS011;26951;47.338;9.196;2023-01-26T06:39:14;20.67;;;10.82;;
41219;SDS011;26951;47.338;9.196;2023-01-26T06:41:59;16.80;;;9.98;;
41219;SDS011;26951;47.338;9.196;2023-01-26T06:44:43;19.85;;;10.52;;
41219;SDS011;26951;47.338;9.196;2023-01-26T06:47:27;18.27;;;9.77;;
41219;SDS011;26951;47.338;9.196;2023-01-26T06:50:13;22.17;;;10.13;;
41219;SDS011;26951;47.338;9.196;2023-01-26T06:52:59;18.75;;;8.88;;
41219;SDS011;26951;47.338;9.196;2023-01-26T06:55:46;19.38;;;9.57;;
41219;SDS011;26951;47.338;9.196;2023-01-26T06:58:31;22.30;;;10.18;;
41219;SDS011;26951;47.338;9.196;2023-01-26T07:01:16;18.65;;;10.30;;
41219;SDS011;26951;47.338;9.196;2023-01-26T07:04:06;20.17;;;10.27;;
41219;SDS011;26951;47.338;9.196;2023-01-26T07:06:51;20.83;;;10.70;;
41219;SDS011;26951;47.338;9.196;2023-01-26T07:09:35;25.63;;;12.75;;
41219;SDS011;26951;47.338;9.196;2023-01-26T07:12:19;21.50;;;11.48;;
41219;SDS011;26951;47.338;9.196;2023-01-26T07:15:04;20.80;;;10.88;;
41219;SDS011;26951;47.338;9.196;2023-01-26T07:17:48;21.52;;;9.95;;
41219;SDS011;26951;47.338;9.196;2023-01-26T07:20:32;19.05;;;10.60;;
41219;SDS011;26951;47.338;9.196;2023-01-26T07:23:16;19.27;;;10.27;;
41219;SDS011;26951;47.338;9.196;2023-01-26T07:26:00;19.80;;;9.13;;
41219;SDS011;26951;47.338;9.196;2023-01-26T07:28:45;19.02;;;10.55;;
41219;SDS011;26951;47.338;9.196;2023-01-26T07:31:29;23.80;;;12.27;;
41219;SDS011;26951;47.338;9.196;2023-01-26T07:34:13;18.15;;;10.15;;
41219;SDS011;26951;47.338;9.196;2023-01-26T07:36:57;19.92;;;9.68;;
41219;SDS011;26951;47.338;9.196;2023-01-26T07:39:41;19.77;;;10.00;;
41219;SDS011;26951;47.338;9.196;2023-01-26T07:46:06;17.77;;;9.90;;
41219;SDS011;26951;47.338;9.196;2023-01-26T07:48:51;23.23;;;12.30;;
41219;SDS011;26951;47.338;9.196;2023-01-26T07:51:35;19.98;;;10.75;;
41219;SDS011;26951;47.338;9.196;2023-01-26T07:54:20;18.15;;;10.27;;
41219;SDS011;26951;47.338;9.196;2023-01-26T07:57:05;22.35;;;11.23;;
41219;SDS011;26951;47.338;9.196;2023-01-26T07:59:52;18.80;;;9.60;;
41219;SDS011;26951;47.338;9.196;2023-01-26T08:02:36;19.25;;;10.05;;
41219;SDS011;26951;47.338;9.196;2023-01-26T08:05:20;20.35;;;10.52;;
41219;SDS011;26951;47.338;9.196;2023-01-26T08:08:04;20.67;;;10.48;;
41219;SDS011;26951;47.338;9.196;2023-01-26T08:10:48;19.33;;;10.00;;
41219;SDS011;26951;47.338;9.196;2023-01-26T08:13:32;28.13;;;12.20;;
41219;SDS011;26951;47.338;9.196;2023-01-26T08:16:16;23.52;;;11.57;;
41219;SDS011;26951;47.338;9.196;2023-01-26T08:19:00;23.85;;;11.95;;
41219;SDS011;26951;47.338;9.196;2023-01-26T08:21:45;20.55;;;11.18;;
41219;SDS011;26951;47.338;9.196;2023-01-26T08:24:29;19.75;;;10.00;;
41219;SDS011;26951;47.338;9.196;2023-01-26T08:27:13;22.73;;;10.93;;
41219;SDS011;26951;47.338;9.196;2023-01-26T08:29:59;22.85;;;11.50;;
41219;SDS011;26951;47.338;9.196;2023-01-26T08:32:43;22.95;;;11.63;;
41219;SDS011;26951;47.338;9.196;2023-01-26T08:35:27;22.10;;;11.27;;
41219;SDS011;26951;47.338;9.196;2023-01-26T08:38:11;22.50;;;12.50;;
41219;SDS011;26951;47.338;9.196;2023-01-26T08:40:55;24.35;;;12.20;;
41219;SDS011;26951;47.338;9.196;2023-01-26T08:43:40;23.60;;;13.07;;
41219;SDS011;26951;47.338;9.196;2023-01-26T08:46:25;24.48;;;13.02;;
41219;SDS011;26951;47.338;9.196;2023-01-26T08:49:09;23.65;;;12.05;;
41219;SDS011;26951;47.338;9.196;2023-01-26T08:51:53;26.63;;;13.32;;
41219;SDS011;26951;47.338;9.196;2023-01-26T08:54:37;24.58;;;14.00;;
41219;SDS011;26951;47.338;9.196;2023-01-26T08:57:21;24.52;;;12.73;;
41219;SDS011;26951;47.338;9.196;2023-01-26T09:00:06;25.38;;;13.73;;
41219;SDS011;26951;47.338;9.196;2023-01-26T09:02:56;29.05;;;12.27;;
41219;SDS011;26951;47.338;9.196;2023-01-26T09:05:42;28.38;;;13.85;;
41219;SDS011;26951;47.338;9.196;2023-01-26T09:08:26;25.55;;;13.45;;
41219;SDS011;26951;47.338;9.196;2023-01-26T09:11:11;21.58;;;11.85;;
41219;SDS011;26951;47.338;9.196;2023-01-26T09:13:55;26.08;;;13.20;;
41219;SDS011;26951;47.338;9.196;2023-01-26T09:16:39;26.33;;;12.65;;
41219;SDS011;26951;47.338;9.196;2023-01-26T09:19:23;25.35;;;12.25;;
41219;SDS011;26951;47.338;9.196;2023-01-26T09:22:07;25.40;;;12.73;;
41219;SDS011;26951;47.338;9.196;2023-01-26T09:24:51;27.52;;;14.32;;
41219;SDS011;26951;47.338;9.196;2023-01-26T09:27:36;23.77;;;13.40;;
41219;SDS011;26951;47.338;9.196;2023-01-26T09:30:20;28.13;;;13.88;;
41219;SDS011;26951;47.338;9.196;2023-01-26T09:33:07;30.15;;;15.18;;
41219;SDS011;26951;47.338;9.196;2023-01-26T09:35:52;26.05;;;12.75;;
41219;SDS011;26951;47.338;9.196;2023-01-26T09:38:36;27.05;;;13.98;;
41219;SDS011;26951;47.338;9.196;2023-01-26T09:41:42;26.67;;;13.70;;
41219;SDS011;26951;47.338;9.196;2023-01-26T09:44:42;28.25;;;14.15;;
41219;SDS011;26951;47.338;9.196;2023-01-26T09:50:56;26.67;;;14.07;;
41219;SDS011;26951;47.338;9.196;2023-01-26T09:53:57;27.85;;;14.05;;
41219;SDS011;26951;47.338;9.196;2023-01-26T09:56:45;27.83;;;14.50;;
41219;SDS011;26951;47.338;9.196;2023-01-26T09:59:42;22.70;;;12.00;;
41219;SDS011;26951;47.338;9.196;2023-01-26T10:09:01;22.88;;;11.52;;
41219;SDS011;26951;47.338;9.196;2023-01-26T10:11:55;28.60;;;14.85;;
41219;SDS011;26951;47.338;9.196;2023-01-26T10:15:07;28.88;;;14.40;;
41219;SDS011;26951;47.338;9.196;2023-01-26T10:20:37;25.35;;;12.07;;
41219;SDS011;26951;47.338;9.196;2023-01-26T10:23:28;23.38;;;11.63;;
41219;SDS011;26951;47.338;9.196;2023-01-26T10:26:21;23.20;;;13.30;;
41219;SDS011;26951;47.338;9.196;2023-01-26T10:29:10;23.13;;;12.25;;
41219;SDS011;26951;47.338;9.196;2023-01-26T10:31:58;25.42;;;12.10;;
41219;SDS011;26951;47.338;9.196;2023-01-26T10:34:43;21.52;;;11.68;;
41219;SDS011;26951;47.338;9.196;2023-01-26T10:37:32;25.70;;;12.52;;
41219;SDS011;26951;47.338;9.196;2023-01-26T10:40:17;26.85;;;13.63;;
41219;SDS011;26951;47.338;9.196;2023-01-26T10:43:02;22.60;;;11.93;;
41219;SDS011;26951;47.338;9.196;2023-01-26T10:45:46;22.67;;;12.27;;
41219;SDS011;26951;47.338;9.196;2023-01-26T10:48:30;22.20;;;11.63;;
41219;SDS011;26951;47.338;9.196;2023-01-26T10:51:18;25.52;;;12.00;;
41219;SDS011;26951;47.338;9.196;2023-01-26T10:57:02;28.00;;;13.55;;
41219;SDS011;26951;47.338;9.196;2023-01-26T10:59:51;27.58;;;13.68;;
41219;SDS011;26951;47.338;9.196;2023-01-26T11:02:38;23.92;;;13.38;;
41219;SDS011;26951;47.338;9.196;2023-01-26T11:06:04;24.05;;;11.93;;
41219;SDS011;26951;47.338;9.196;2023-01-26T11:09:10;27.17;;;14.52;;
41219;SDS011;26951;47.338;9.196;2023-01-26T11:11:58;28.00;;;12.93;;
41219;SDS011;26951;47.338;9.196;2023-01-26T11:15:00;23.83;;;12.68;;
41219;SDS011;26951;47.338;9.196;2023-01-26T11:17:56;24.48;;;12.68;;
41219;SDS011;26951;47.338;9.196;2023-01-26T11:20:52;25.15;;;13.38;;
41219;SDS011;26951;47.338;9.196;2023-01-26T11:24:02;23.30;;;11.68;;
41219;SDS011;26951;47.338;9.196;2023-01-26T11:39:21;23.15;;;12.82;;
41219;SDS011;26951;47.338;9.196;2023-01-26T11:42:23;25.02;;;12.70;;
41219;SDS011;26951;47.338;9.196;2023-01-26T11:48:20;24.55;;;12.07;;
41219;SDS011;26951;47.338;9.196;2023-01-26T11:51:46;21.42;;;10.55;;
41219;SDS011;26951;47.338;9.196;2023-01-26T11:55:09;22.23;;;11.88;;
41219;SDS011;26951;47.338;9.196;2023-01-26T12:01:14;23.83;;;11.98;;
41219;SDS011;26951;47.338;9.196;2023-01-26T12:04:13;27.75;;;13.48;;
41219;SDS011;26951;47.338;9.196;2023-01-26T12:07:10;21.15;;;10.43;;
41219;SDS011;26951;47.338;9.196;2023-01-26T12:10:06;25.75;;;11.95;;
41219;SDS011;26951;47.338;9.196;2023-01-26T12:16:22;18.98;;;10.70;;
41219;SDS011;26951;47.338;9.196;2023-01-26T12:19:22;25.27;;;11.80;;
41219;SDS011;26951;47.338;9.196;2023-01-26T12:22:18;24.10;;;11.98;;
41219;SDS011;26951;47.338;9.196;2023-01-26T12:28:27;23.55;;;12.65;;
41219;SDS011;26951;47.338;9.196;2023-01-26T12:31:47;20.35;;;10.30;;
41219;SDS011;26951;47.338;9.196;2023-01-26T12:34:38;21.95;;;10.43;;
41219;SDS011;26951;47.338;9.196;2023-01-26T12:37:43;23.13;;;11.55;;
41219;SDS011;26951;47.338;9.196;2023-01-26T12:40:39;24.45;;;12.43;;
41219;SDS011;26951;47.338;9.196;2023-01-26T12:44:03;23.75;;;12.80;;
41219;SDS011;26951;47.338;9.196;2023-01-26T12:53:20;22.35;;;11.70;;
41219;SDS011;26951;47.338;9.196;2023-01-26T12:56:30;23.42;;;12.57;;
41219;SDS011;26951;47.338;9.196;2023-01-26T12:59:27;23.17;;;10.82;;
41219;SDS011;26951;47.338;9.196;2023-01-26T13:02:35;23.95;;;11.80;;
41219;SDS011;26951;47.338;9.196;2023-01-26T13:05:30;22.75;;;10.90;;
41219;SDS011;26951;47.338;9.196;2023-01-26T13:14:28;20.13;;;9.65;;
41219;SDS011;26951;47.338;9.196;2023-01-26T13:19:59;22.27;;;10.70;;
41219;SDS011;26951;47.338;9.196;2023-01-26T13:26:23;22.55;;;10.88;;
41219;SDS011;26951;47.338;9.196;2023-01-26T13:32:49;21.15;;;11.40;;
41219;SDS011;26951;47.338;9.196;2023-01-26T13:35:23;22.95;;;11.48;;
41219;SDS011;26951;47.338;9.196;2023-01-26T13:38:29;20.45;;;10.95;;
41219;SDS011;26951;47.338;9.196;2023-01-26T13:41:18;22.00;;;10.43;;
41219;SDS011;26951;47.338;9.196;2023-01-26T13:44:05;23.65;;;11.32;;
41219;SDS011;26951;47.338;9.196;2023-01-26T13:47:00;20.38;;;12.45;;
41219;SDS011;26951;47.338;9.196;2023-01-26T13:49:51;21.17;;;10.60;;
41219;SDS011;26951;47.338;9.196;2023-01-26T13:52:35;20.55;;;10.90;;
41219;SDS011;26951;47.338;9.196;2023-01-26T13:55:26;21.48;;;11.25;;
41219;SDS011;26951;47.338;9.196;2023-01-26T13:58:14;20.90;;;11.35;;
41219;SDS011;26951;47.338;9.196;2023-01-26T14:01:02;20.90;;;11.05;;
41219;SDS011;26951;47.338;9.196;2023-01-26T14:03:57;22.02;;;11.25;;
41219;SDS011;26951;47.338;9.196;2023-01-26T14:06:46;22.42;;;11.15;;
41219;SDS011;26951;47.338;9.196;2023-01-26T14:09:43;19.90;;;10.68;;
41219;SDS011;26951;47.338;9.196;2023-01-26T14:12:51;21.58;;;11.13;;
41219;SDS011;26951;47.338;9.196;2023-01-26T14:15:39;21.80;;;10.57;;
41219;SDS011;26951;47.338;9.196;2023-01-26T14:18:24;22.20;;;10.82;;
41219;SDS011;26951;47.338;9.196;2023-01-26T14:21:17;19.30;;;10.77;;
41219;SDS011;26951;47.338;9.196;2023-01-26T14:24:04;20.67;;;10.65;;
41219;SDS011;26951;47.338;9.196;2023-01-26T14:26:51;17.27;;;8.75;;
41219;SDS011;26951;47.338;9.196;2023-01-26T14:29:37;22.48;;;11.63;;
41219;SDS011;26951;47.338;9.196;2023-01-26T14:32:21;18.85;;;10.32;;
41219;SDS011;26951;47.338;9.196;2023-01-26T14:35:17;15.27;;;8.77;;
41219;SDS011;26951;47.338;9.196;2023-01-26T14:41:00;24.33;;;12.63;;
41219;SDS011;26951;47.338;9.196;2023-01-26T14:43:44;18.77;;;9.80;;
41219;SDS011;26951;47.338;9.196;2023-01-26T14:52:38;19.27;;;11.25;;
41219;SDS011;26951;47.338;9.196;2023-01-26T14:55:28;19.20;;;10.95;;
41219;SDS011;26951;47.338;9.196;2023-01-26T14:58:19;20.02;;;11.00;;
41219;SDS011;26951;47.338;9.196;2023-01-26T15:01:04;21.08;;;11.52;;
41219;SDS011;26951;47.338;9.196;2023-01-26T15:03:48;17.45;;;9.75;;
41219;SDS011;26951;47.338;9.196;2023-01-26T15:06:38;17.40;;;8.88;;
41219;SDS011;26951;47.338;9.196;2023-01-26T15:09:26;19.35;;;10.20;;
41219;SDS011;26951;47.338;9.196;2023-01-26T15:12:12;17.45;;;9.38;;
41219;SDS011;26951;47.338;9.196;2023-01-26T15:14:59;19.73;;;9.55;;
41219;SDS011;26951;47.338;9.196;2023-01-26T15:17:44;18.20;;;9.73;;
41219;SDS011;26951;47.338;9.196;2023-01-26T15:23:28;15.57;;;9.07;;
41219;SDS011;26951;47.338;9.196;2023-01-26T15:29:23;19.13;;;8.70;;
41219;SDS011;26951;47.338;9.196;2023-01-26T15:32:24;17.00;;;8.70;;
41219;SDS011;26951;47.338;9.196;2023-01-26T15:35:19;15.38;;;8.85;;
41219;SDS011;26951;47.338;9.196;2023-01-26T15:38:10;17.65;;;9.10;;
41219;SDS011;26951;47.338;9.196;2023-01-26T15:40:55;18.90;;;10.25;;
41219;SDS011;26951;47.338;9.196;2023-01-26T15:43:39;19.35;;;11.27;;
41219;SDS011;26951;47.338;9.196;2023-01-26T15:46:24;20.70;;;11.90;;
41219;SDS011;26951;47.338;9.196;2023-01-26T15:49:08;26.10;;;13.27;;
41219;SDS011;26951;47.338;9.196;2023-01-26T15:51:53;20.25;;;11.20;;
41219;SDS011;26951;47.338;9.196;2023-01-26T15:54:37;21.77;;;10.32;;
41219;SDS011;26951;47.338;9.196;2023-01-26T15:57:21;21.33;;;11.38;;
41219;SDS011;26951;47.338;9.196;2023-01-26T16:00:05;22.35;;;10.13;;
41219;SDS011;26951;47.338;9.196;2023-01-26T16:02:50;19.42;;;10.35;;
41219;SDS011;26951;47.338;9.196;2023-01-26T16:05:34;20.02;;;9.85;;
41219;SDS011;26951;47.338;9.196;2023-01-26T16:08:18;19.10;;;10.35;;
41219;SDS011;26951;47.338;9.196;2023-01-26T16:11:04;17.33;;;9.68;;
41219;SDS011;26951;47.338;9.196;2023-01-26T16:13:52;19.08;;;10.65;;
41219;SDS011;26951;47.338;9.196;2023-01-26T16:16:36;23.15;;;11.18;;
41219;SDS011;26951;47.338;9.196;2023-01-26T16:19:21;22.00;;;10.80;;
41219;SDS011;26951;47.338;9.196;2023-01-26T16:22:05;21.48;;;11.70;;
41219;SDS011;26951;47.338;9.196;2023-01-26T16:24:51;19.30;;;10.25;;
41219;SDS011;26951;47.338;9.196;2023-01-26T16:27:35;21.20;;;10.80;;
41219;SDS011;26951;47.338;9.196;2023-01-26T16:30:19;17.77;;;8.80;;
41219;SDS011;26951;47.338;9.196;2023-01-26T16:33:04;17.02;;;8.57;;
41219;SDS011;26951;47.338;9.196;2023-01-26T16:35:48;17.13;;;8.95;;
41219;SDS011;26951;47.338;9.196;2023-01-26T16:38:32;20.08;;;10.20;;
41219;SDS011;26951;47.338;9.196;2023-01-26T16:41:21;19.50;;;10.38;;
41219;SDS011;26951;47.338;9.196;2023-01-26T16:44:14;16.67;;;9.07;;
41219;SDS011;26951;47.338;9.196;2023-01-26T16:47:00;18.55;;;10.35;;
41219;SDS011;26951;47.338;9.196;2023-01-26T16:49:46;20.00;;;9.50;;
41219;SDS011;26951;47.338;9.196;2023-01-26T16:52:30;19.05;;;10.52;;
41219;SDS011;26951;47.338;9.196;2023-01-26T16:55:16;19.42;;;8.80;;
41219;SDS011;26951;47.338;9.196;2023-01-26T16:58:01;18.33;;;9.57;;
41219;SDS011;26951;47.338;9.196;2023-01-26T17:00:45;22.75;;;12.57;;
41219;SDS011;26951;47.338;9.196;2023-01-26T17:03:29;17.10;;;10.50;;
41219;SDS011;26951;47.338;9.196;2023-01-26T17:06:14;22.60;;;11.27;;
41219;SDS011;26951;47.338;9.196;2023-01-26T17:11:43;22.17;;;12.05;;
41219;SDS011;26951;47.338;9.196;2023-01-26T17:14:27;20.38;;;10.40;;
41219;SDS011;26951;47.338;9.196;2023-01-26T17:17:12;17.77;;;10.10;;
41219;SDS011;26951;47.338;9.196;2023-01-26T17:19:58;22.20;;;11.35;;
41219;SDS011;26951;47.338;9.196;2023-01-26T17:22:43;18.92;;;9.70;;
41219;SDS011;26951;47.338;9.196;2023-01-26T17:25:28;16.45;;;8.30;;
41219;SDS011;26951;47.338;9.196;2023-01-26T17:28:12;21.33;;;10.98;;
41219;SDS011;26951;47.338;9.196;2023-01-26T17:30:56;18.65;;;9.20;;
41219;SDS011;26951;47.338;9.196;2023-01-26T17:33:40;20.65;;;9.70;;
41219;SDS011;26951;47.338;9.196;2023-01-26T17:36:24;18.27;;;9.70;;
41219;SDS011;26951;47.338;9.196;2023-01-26T17:39:08;17.75;;;9.52;;
41219;SDS011;26951;47.338;9.196;2023-01-26T17:41:53;16.17;;;8.82;;
41219;SDS011;26951;47.338;9.196;2023-01-26T17:44:37;14.27;;;8.15;;
41219;SDS011;26951;47.338;9.196;2023-01-26T17:47:22;16.38;;;8.32;;
41219;SDS011;26951;47.338;9.196;2023-01-26T17:50:07;15.05;;;8.48;;
41219;SDS011;26951;47.338;9.196;2023-01-26T17:52:51;17.95;;;9.52;;
41219;SDS011;26951;47.338;9.196;2023-01-26T17:55:35;16.48;;;8.77;;
41219;SDS011;26951;47.338;9.196;2023-01-26T17:58:19;15.55;;;8.48;;